Time;durP1;ratioP1;P1;durP2;ratioP2;P2;SDS_P1;SDS_P2;PMS_P1;PMS_P2;Temp;Humidity;BMP_temperature;BMP_pressure;BME280_temperature;BME280_humidity;BME280_pressure;Samples;Min_cycle;Max_cycle;Signal;HPM_P1;HPM_P2
2022/02/24 00:00:13;;;;;;;12.57;4.22;;;;;;;12.31;52.28;100743.00;4799020;29;119780;-86
2022/02/24 00:02:39;;;;;;;14.02;4.28;;;;;;;12.27;53.45;100732.16;4811443;29;120309;-89
2022/02/24 00:05:06;;;;;;;12.07;3.58;;;;;;;12.26;52.90;100727.13;4795110;29;123254;-85
2022/02/24 00:07:32;;;;;;;18.38;4.38;;;;;;;12.32;53.27;100738.28;4794894;29;121834;-85
2022/02/24 00:09:57;;;;;;;12.38;3.53;;;;;;;12.35;52.28;100713.34;4795195;29;123172;-85
2022/02/24 00:12:23;;;;;;;11.95;3.92;;;;;;;12.44;52.98;100729.06;4793672;29;120311;-86
2022/02/24 00:14:50;;;;;;;12.07;4.10;;;;;;;12.38;51.98;100717.19;4796480;29;122147;-86
2022/02/24 00:17:15;;;;;;;10.43;3.53;;;;;;;12.32;51.54;100705.28;4792714;29;122473;-87
2022/02/24 00:19:41;;;;;;;17.35;4.05;;;;;;;12.29;52.84;100713.19;4794331;29;119714;-87
2022/02/24 00:22:07;;;;;;;13.95;4.20;;;;;;;12.37;53.47;100723.91;4791793;29;120601;-85
2022/02/24 00:24:32;;;;;;;13.50;4.10;;;;;;;12.33;53.56;100713.06;4802674;29;120153;-87
2022/02/24 00:26:58;;;;;;;13.65;3.88;;;;;;;12.32;52.95;100705.28;4797862;29;121057;-87
2022/02/24 00:29:26;;;;;;;12.25;4.00;;;;;;;12.38;53.22;100697.91;4796091;29;122772;-85
2022/02/24 00:31:51;;;;;;;14.18;4.15;;;;;;;12.43;54.25;100708.28;4809530;29;120023;-86
2022/02/24 00:34:22;;;;;;;12.73;3.63;;;;;;;12.43;53.95;100698.06;4809523;29;119953;-84
2022/02/24 00:36:52;;;;;;;15.98;4.30;;;;;;;12.38;52.41;100689.66;4810019;29;120122;-85
2022/02/24 00:39:18;;;;;;;13.60;3.90;;;;;;;12.44;53.43;100696.06;4791862;29;119922;-85
2022/02/24 00:41:44;;;;;;;14.20;4.10;;;;;;;12.40;53.38;100684.47;4822892;28;121561;-84
2022/02/24 00:44:09;;;;;;;13.45;4.00;;;;;;;12.52;52.16;100695.25;4811491;29;123663;-85
2022/02/24 00:46:36;;;;;;;9.98;3.75;;;;;;;12.42;52.86;100671.78;4793546;29;120509;-85
2022/02/24 00:49:02;;;;;;;14.63;4.47;;;;;;;12.44;53.13;100677.56;4790756;29;119535;-83
2022/02/24 00:51:28;;;;;;;16.35;4.25;;;;;;;12.44;53.97;100674.06;4827607;28;120996;-83
2022/02/24 00:53:53;;;;;;;13.93;4.53;;;;;;;12.43;54.01;100662.28;4793613;29;123153;-86
2022/02/24 00:56:19;;;;;;;12.88;4.38;;;;;;;12.54;52.70;100667.31;4808571;29;119828;-85
2022/02/24 00:58:44;;;;;;;12.98;3.63;;;;;;;12.55;53.51;100669.59;4795286;29;120188;-83
2022/02/24 01:01:10;;;;;;;12.50;3.78;;;;;;;12.55;52.75;100677.09;4794509;29;121676;-84
2022/02/24 01:03:36;;;;;;;16.63;4.18;;;;;;;12.50;51.66;100663.94;4776874;29;123424;-88
2022/02/24 01:06:01;;;;;;;13.00;3.90;;;;;;;12.49;53.48;100656.91;4796415;29;119889;-86
2022/02/24 01:08:30;;;;;;;14.43;3.72;;;;;;;12.56;53.24;100670.38;4795012;29;122355;-87
2022/02/24 01:10:55;;;;;;;14.45;3.83;;;;;;;12.53;52.62;100665.75;4794353;29;123466;-85
2022/02/24 01:13:21;;;;;;;13.20;4.03;;;;;;;12.42;52.89;100657.25;4808375;29;121968;-87
2022/02/24 01:15:47;;;;;;;13.98;3.70;;;;;;;12.39;52.92;100647.19;4793180;29;122657;-85
2022/02/24 01:18:12;;;;;;;16.55;4.07;;;;;;;12.38;52.76;100649.16;4793197;29;120627;-84
2022/02/24 01:20:38;;;;;;;16.50;4.38;;;;;;;12.45;53.26;100659.06;4795223;29;119488;-86
2022/02/24 01:23:05;;;;;;;12.90;4.07;;;;;;;12.50;52.95;100656.44;4793496;29;123513;-84
2022/02/24 01:25:32;;;;;;;16.05;3.83;;;;;;;12.47;52.37;100651.13;4825562;28;120483;-85
2022/02/24 01:27:59;;;;;;;16.20;3.72;;;;;;;12.42;53.40;100638.00;4807863;29;121997;-84
2022/02/24 01:30:25;;;;;;;16.38;4.63;;;;;;;12.45;54.29;100643.34;4792414;29;122940;-86
2022/02/24 01:32:51;;;;;;;13.13;4.13;;;;;;;12.54;54.33;100645.31;4781538;29;121318;-87
2022/02/24 01:35:16;;;;;;;15.73;3.88;;;;;;;12.52;53.28;100636.72;4779489;29;123067;-84
2022/02/24 01:37:44;;;;;;;16.80;4.32;;;;;;;12.52;53.50;100643.00;4794303;29;120007;-85
2022/02/24 01:40:12;;;;;;;13.73;3.80;;;;;;;12.51;52.95;100641.47;4774333;29;121527;-85
2022/02/24 01:42:38;;;;;;;15.80;4.00;;;;;;;12.51;53.77;100624.97;4788447;29;121892;-84
2022/02/24 01:45:05;;;;;;;18.70;6.47;;;;;;;12.50;53.36;100626.19;4790806;29;120434;-84
2022/02/24 01:47:30;;;;;;;18.48;6.82;;;;;;;12.53;53.34;100627.25;4805830;29;119886;-84
2022/02/24 01:49:56;;;;;;;23.13;9.43;;;;;;;12.50;53.58;100612.44;4791729;29;123366;-86
2022/02/24 01:52:22;;;;;;;20.90;7.60;;;;;;;12.50;54.78;100608.91;4796595;29;120255;-83
2022/02/24 01:54:49;;;;;;;17.95;6.07;;;;;;;12.52;54.97;100617.47;4790676;29;124224;-82
2022/02/24 01:57:16;;;;;;;19.70;6.57;;;;;;;12.54;55.08;100612.28;4823366;28;120680;-84
2022/02/24 01:59:42;;;;;;;12.82;4.43;;;;;;;12.54;55.00;100596.53;4792505;29;122798;-83
2022/02/24 02:02:08;;;;;;;19.45;4.70;;;;;;;12.51;53.47;100580.19;4788277;29;123313;-85
2022/02/24 02:04:36;;;;;;;13.95;4.32;;;;;;;12.52;54.50;100584.47;4795138;29;120575;-87
2022/02/24 02:07:02;;;;;;;19.48;4.80;;;;;;;12.49;54.67;100577.13;4809183;29;119951;-85
2022/02/24 02:09:31;;;;;;;16.08;4.50;;;;;;;12.51;54.53;100580.94;4795497;29;120779;-85
2022/02/24 02:11:58;;;;;;;19.15;4.72;;;;;;;12.53;54.01;100583.22;4794049;29;120363;-85
2022/02/24 02:14:24;;;;;;;14.32;4.18;;;;;;;12.54;55.30;100587.53;4812762;29;121238;-83
2022/02/24 02:16:51;;;;;;;13.45;3.60;;;;;;;12.57;54.69;100589.34;4808368;29;120354;-85
2022/02/24 02:19:20;;;;;;;20.38;5.40;;;;;;;12.57;54.28;100576.34;4792784;29;122404;-83
2022/02/24 02:21:46;;;;;;;15.55;4.15;;;;;;;12.50;54.74;100571.16;4809119;29;119914;-84
2022/02/24 02:24:13;;;;;;;15.73;3.92;;;;;;;12.54;54.13;100565.50;4811702;29;120120;-85
2022/02/24 02:26:39;;;;;;;18.13;4.05;;;;;;;12.52;54.85;100559.69;4810102;29;126021;-82
2022/02/24 02:29:09;;;;;;;15.77;4.25;;;;;;;12.57;54.87;100561.84;4793805;29;122525;-83
2022/02/24 02:31:35;;;;;;;18.75;4.55;;;;;;;12.55;53.91;100553.28;4790755;29;120189;-86
2022/02/24 02:34:09;;;;;;;11.40;4.10;;;;;;;12.53;55.61;100558.47;4776024;29;122050;-86
2022/02/24 02:36:37;;;;;;;17.45;4.28;;;;;;;12.55;55.19;100548.53;4796127;29;121051;-84
2022/02/24 02:39:04;;;;;;;14.63;4.20;;;;;;;12.52;54.42;100543.19;4808383;29;121172;-84
2022/02/24 02:41:33;;;;;;;16.45;4.22;;;;;;;12.63;54.56;100548.94;4792302;29;122831;-86
2022/02/24 02:44:00;;;;;;;21.70;4.75;;;;;;;12.59;54.31;100535.38;4793444;29;122873;-84
2022/02/24 02:46:27;;;;;;;12.65;4.32;;;;;;;12.62;54.19;100532.91;4793571;29;122282;-87
2022/02/24 02:48:53;;;;;;;16.05;3.97;;;;;;;12.61;54.01;100523.88;4791110;29;122806;-84
2022/02/24 02:51:19;;;;;;;14.05;3.80;;;;;;;12.66;54.47;100534.25;4808770;29;120538;-82
2022/02/24 02:53:45;;;;;;;17.42;4.10;;;;;;;12.64;53.85;100536.72;4779688;29;122862;-81
2022/02/24 02:56:12;;;;;;;18.60;4.07;;;;;;;12.57;53.55;100531.56;4809490;29;121122;-80
2022/02/24 02:58:41;;;;;;;16.58;4.28;;;;;;;12.50;54.25;100524.41;4797003;29;119911;-82
2022/02/24 03:01:07;;;;;;;15.77;4.10;;;;;;;12.55;53.42;100536.78;4790108;29;120057;-82
2022/02/24 03:03:32;;;;;;;16.60;4.35;;;;;;;12.52;55.24;100541.19;4806227;29;120057;-81
2022/02/24 03:05:58;;;;;;;13.73;3.88;;;;;;;12.50;55.53;100513.41;4794479;29;121626;-83
2022/02/24 03:08:24;;;;;;;14.82;4.30;;;;;;;12.58;54.17;100520.09;4779492;29;122929;-83
2022/02/24 03:10:50;;;;;;;16.80;4.38;;;;;;;12.60;55.01;100516.88;4794199;29;119843;-82
2022/02/24 03:13:17;;;;;;;14.50;3.85;;;;;;;12.56;54.71;100525.31;4794048;29;123461;-85
2022/02/24 03:15:43;;;;;;;16.55;4.28;;;;;;;12.54;54.63;100510.50;4793311;29;122889;-82
2022/02/24 03:18:10;;;;;;;17.15;4.05;;;;;;;12.55;54.98;100510.03;4810204;29;120680;-82
2022/02/24 03:20:36;;;;;;;15.70;4.22;;;;;;;12.49;54.86;100494.59;4812404;29;121532;-82
2022/02/24 03:23:08;;;;;;;16.23;3.90;;;;;;;12.49;54.93;100502.84;4808806;29;120082;-80
2022/02/24 03:25:34;;;;;;;18.50;4.13;;;;;;;12.52;54.68;100499.16;4792252;29;120027;-83
2022/02/24 03:28:00;;;;;;;14.88;4.35;;;;;;;12.52;55.09;100499.94;4807663;29;122965;-82
2022/02/24 03:30:27;;;;;;;17.40;4.22;;;;;;;12.55;55.94;100501.00;4806461;29;119851;-82
2022/02/24 03:32:53;;;;;;;16.10;4.25;;;;;;;12.54;54.88;100496.72;4796243;29;119907;-82
2022/02/24 03:35:20;;;;;;;18.30;4.68;;;;;;;12.62;54.81;100499.88;4810286;29;121234;-82
2022/02/24 03:37:47;;;;;;;17.67;4.68;;;;;;;12.54;54.72;100478.25;4797608;29;120272;-83
2022/02/24 03:40:14;;;;;;;15.65;4.25;;;;;;;12.55;54.13;100476.25;4809946;29;120955;-82
2022/02/24 03:42:40;;;;;;;17.00;4.30;;;;;;;12.49;54.92;100480.84;4814078;29;120189;-83
2022/02/24 03:45:07;;;;;;;13.63;4.25;;;;;;;12.40;54.72;100481.69;4798951;29;119501;-82
2022/02/24 03:47:32;;;;;;;16.02;4.35;;;;;;;12.34;56.46;100467.03;4794612;29;120283;-83
2022/02/24 03:49:58;;;;;;;18.77;4.47;;;;;;;12.34;54.57;100480.03;4809739;29;121131;-82
2022/02/24 03:52:24;;;;;;;18.08;4.57;;;;;;;12.43;54.64;100485.47;4798755;29;120786;-80
2022/02/24 03:54:49;;;;;;;17.95;4.22;;;;;;;12.41;54.66;100468.69;4794667;29;122575;-83
2022/02/24 03:57:16;;;;;;;18.08;4.28;;;;;;;12.40;56.06;100465.19;4794767;29;120008;-83
2022/02/24 03:59:42;;;;;;;19.67;4.53;;;;;;;12.51;55.03;100483.88;4791541;29;120316;-83
2022/02/24 04:02:08;;;;;;;20.77;5.03;;;;;;;12.51;54.45;100475.63;4797444;29;120466;-83
2022/02/24 04:04:35;;;;;;;16.88;4.20;;;;;;;12.48;54.93;100465.56;4808912;29;121166;-82
2022/02/24 04:07:02;;;;;;;21.48;4.70;;;;;;;12.50;56.40;100471.38;4808779;29;120880;-82
2022/02/24 04:09:28;;;;;;;17.73;4.20;;;;;;;12.53;54.83;100462.94;4808184;29;119783;-83
2022/02/24 04:11:55;;;;;;;21.95;4.88;;;;;;;12.50;54.80;100447.38;4806685;29;120962;-82
2022/02/24 04:14:20;;;;;;;18.17;4.03;;;;;;;12.53;55.52;100457.44;4823386;29;120346;-83
2022/02/24 04:16:46;;;;;;;17.55;4.53;;;;;;;12.57;55.52;100460.03;4796250;29;120854;-83
2022/02/24 04:19:12;;;;;;;20.77;4.22;;;;;;;12.55;55.37;100445.97;4777747;29;121991;-83
2022/02/24 04:21:38;;;;;;;16.70;4.25;;;;;;;12.54;54.37;100444.47;4793618;29;120290;-83
2022/02/24 04:24:04;;;;;;;22.13;4.95;;;;;;;12.48;54.54;100440.81;4786113;29;120412;-82
2022/02/24 04:26:31;;;;;;;20.02;4.50;;;;;;;12.45;55.10;100439.00;4776405;29;124036;-83
2022/02/24 04:28:57;;;;;;;15.90;4.13;;;;;;;12.43;55.43;100428.47;4794188;29;119696;-81
2022/02/24 04:31:23;;;;;;;19.98;4.55;;;;;;;12.38;54.57;100422.88;4808988;29;123005;-82
2022/02/24 04:33:48;;;;;;;19.27;4.65;;;;;;;12.37;55.03;100430.34;4809803;29;123690;-83
2022/02/24 04:36:14;;;;;;;14.23;4.40;;;;;;;12.33;56.21;100415.25;4794454;29;119638;-81
2022/02/24 04:38:40;;;;;;;22.20;4.60;;;;;;;12.37;55.66;100416.59;4778791;29;122423;-82
2022/02/24 04:41:07;;;;;;;16.73;4.80;;;;;;;12.39;55.53;100405.13;4794446;29;120563;-81
2022/02/24 04:43:32;;;;;;;20.60;4.43;;;;;;;12.35;55.71;100404.56;4809922;29;119559;-81
2022/02/24 04:45:59;;;;;;;19.00;4.35;;;;;;;12.40;55.85;100409.41;4797087;29;122438;-81
2022/02/24 04:48:24;;;;;;;23.65;4.82;;;;;;;12.47;55.93;100401.53;4795609;29;119975;-82
2022/02/24 04:50:50;;;;;;;16.38;4.20;;;;;;;12.42;55.82;100401.44;4794803;29;119889;-82
2022/02/24 04:53:16;;;;;;;17.38;4.35;;;;;;;12.44;54.97;100402.47;4809491;28;122537;-81
2022/02/24 04:55:44;;;;;;;18.10;4.43;;;;;;;12.44;55.53;100396.22;4790934;29;119707;-82
2022/02/24 04:58:09;;;;;;;19.58;4.25;;;;;;;12.33;55.98;100385.00;4795953;29;120071;-83
2022/02/24 05:00:36;;;;;;;15.57;4.35;;;;;;;12.34;56.00;100381.78;4791978;29;119869;-81
2022/02/24 05:03:01;;;;;;;15.13;4.30;;;;;;;12.37;55.44;100371.84;4805924;29;119995;-83
2022/02/24 05:05:27;;;;;;;18.98;4.10;;;;;;;12.37;55.35;100375.34;4795456;29;119572;-82
2022/02/24 05:07:53;;;;;;;19.92;4.63;;;;;;;12.37;54.80;100385.59;4778838;29;122886;-82
2022/02/24 05:10:19;;;;;;;22.85;4.63;;;;;;;12.33;56.69;100379.50;4793434;29;119840;-82
2022/02/24 05:12:44;;;;;;;16.90;4.35;;;;;;;12.23;55.50;100363.06;4795844;29;123218;-83
2022/02/24 05:15:10;;;;;;;17.83;4.63;;;;;;;12.31;56.49;100362.72;4794132;29;119591;-82
2022/02/24 05:17:39;;;;;;;17.98;4.18;;;;;;;12.32;56.88;100370.50;4793631;29;121011;-82
2022/02/24 05:20:07;;;;;;;20.02;4.28;;;;;;;12.25;56.18;100360.59;4806806;29;120339;-84
2022/02/24 05:22:33;;;;;;;18.73;4.75;;;;;;;12.21;55.99;100368.25;4796263;29;120148;-84
2022/02/24 05:24:59;;;;;;;23.42;5.10;;;;;;;12.26;55.32;100370.38;4799010;29;120178;-83
2022/02/24 05:27:24;;;;;;;18.40;4.70;;;;;;;12.25;54.78;100360.59;4794981;29;123024;-83
2022/02/24 05:29:50;;;;;;;16.25;4.95;;;;;;;12.17;55.67;100364.94;4799230;29;119972;-83
2022/02/24 05:32:15;;;;;;;19.33;4.57;;;;;;;12.12;55.98;100351.09;4795938;29;124236;-85
2022/02/24 05:34:41;;;;;;;18.98;4.35;;;;;;;12.23;55.69;100362.31;4795531;29;119935;-85
2022/02/24 05:37:07;;;;;;;17.17;4.70;;;;;;;12.19;55.76;100356.22;4783482;29;121918;-84
2022/02/24 05:39:32;;;;;;;21.95;5.13;;;;;;;12.19;55.16;100348.72;4799985;29;120316;-83
2022/02/24 05:41:59;;;;;;;17.33;4.15;;;;;;;12.16;56.08;100341.44;4811397;29;119861;-83
2022/02/24 05:44:25;;;;;;;13.63;4.18;;;;;;;12.24;56.40;100352.81;4781713;29;121723;-84
2022/02/24 05:46:51;;;;;;;16.35;4.03;;;;;;;12.24;56.17;100352.81;4795384;29;119905;-82
2022/02/24 05:49:17;;;;;;;17.13;4.50;;;;;;;12.26;56.09;100356.63;4796272;29;119770;-82
2022/02/24 05:51:43;;;;;;;17.92;4.25;;;;;;;12.25;55.29;100337.84;4815034;29;119987;-83
2022/02/24 05:54:09;;;;;;;13.52;4.43;;;;;;;12.18;55.12;100344.47;4799539;29;120104;-84
2022/02/24 05:56:34;;;;;;;17.27;4.47;;;;;;;12.17;55.59;100345.69;4790862;29;122366;-83
2022/02/24 05:59:01;;;;;;;14.23;4.40;;;;;;;12.20;55.18;100355.75;4776067;29;123819;-82
2022/02/24 06:01:26;;;;;;;19.75;4.45;;;;;;;12.28;56.77;100336.91;4793328;29;120966;-82
2022/02/24 06:03:52;;;;;;;13.57;3.90;;;;;;;12.22;55.72;100338.78;4793919;29;121938;-82
2022/02/24 06:06:18;;;;;;;14.10;4.35;;;;;;;12.24;55.37;100339.06;4792602;29;123018;-83
2022/02/24 06:08:44;;;;;;;21.27;4.28;;;;;;;12.31;55.21;100346.97;4809014;29;120275;-84
2022/02/24 06:11:10;;;;;;;18.13;4.43;;;;;;;12.30;55.17;100356.44;4796577;29;122968;-83
2022/02/24 06:13:35;;;;;;;19.58;4.75;;;;;;;12.23;55.39;100345.81;4808261;29;121787;-83
2022/02/24 06:16:01;;;;;;;17.75;4.38;;;;;;;12.23;56.43;100343.06;4794847;29;121882;-83
2022/02/24 06:18:27;;;;;;;19.75;4.13;;;;;;;12.30;56.13;100353.69;4779808;29;123392;-82
2022/02/24 06:20:52;;;;;;;18.60;3.97;;;;;;;12.28;55.35;100343.16;4810320;29;121304;-84
2022/02/24 06:23:18;;;;;;;18.90;4.15;;;;;;;12.24;55.44;100334.31;4793144;29;122152;-84
2022/02/24 06:25:44;;;;;;;13.90;3.63;;;;;;;12.20;56.05;100333.75;4795100;29;123094;-82
2022/02/24 06:28:09;;;;;;;17.85;4.43;;;;;;;12.23;55.71;100337.56;4792828;29;123159;-83
2022/02/24 06:30:35;;;;;;;16.27;4.45;;;;;;;12.33;55.17;100346.50;4807852;29;119942;-83
2022/02/24 06:33:02;;;;;;;18.63;4.13;;;;;;;12.30;54.11;100337.19;4798739;29;124299;-83
2022/02/24 06:35:28;;;;;;;18.92;4.72;;;;;;;12.21;55.26;100331.75;4779605;29;121889;-83
2022/02/24 06:37:53;;;;;;;16.80;3.90;;;;;;;12.20;54.97;100317.25;4793623;29;120615;-83
2022/02/24 06:40:19;;;;;;;15.98;3.60;;;;;;;12.08;55.00;100301.78;4795167;29;120812;-83
2022/02/24 06:42:47;;;;;;;14.63;3.70;;;;;;;11.96;55.40;100284.28;4810262;29;122652;-84
2022/02/24 06:45:14;;;;;;;16.02;4.30;;;;;;;11.94;54.98;100302.47;4809161;29;123693;-83
2022/02/24 06:47:42;;;;;;;17.27;3.63;;;;;;;11.78;55.73;100265.16;4795788;29;119713;-83
2022/02/24 06:50:13;;;;;;;18.08;4.03;;;;;;;12.01;55.78;100293.13;4812375;29;121978;-83
2022/02/24 06:52:39;;;;;;;17.88;3.92;;;;;;;11.79;55.53;100266.69;4795732;29;122845;-84
2022/02/24 06:55:07;;;;;;;19.20;4.38;;;;;;;11.99;54.91;100285.34;4813007;29;120095;-83
2022/02/24 06:57:38;;;;;;;13.63;3.65;;;;;;;12.22;56.49;100309.28;4808405;29;120138;-84
2022/02/24 07:00:04;;;;;;;15.90;4.45;;;;;;;12.32;55.57;100320.25;4797151;29;122340;-84
2022/02/24 07:02:30;;;;;;;16.45;3.80;;;;;;;12.33;54.99;100317.00;4809928;29;121577;-85
2022/02/24 07:04:56;;;;;;;17.90;4.22;;;;;;;12.17;55.09;100296.19;4810193;29;120979;-83
2022/02/24 07:07:21;;;;;;;16.73;3.55;;;;;;;12.09;55.18;100278.56;4810761;29;119576;-84
2022/02/24 07:09:47;;;;;;;19.80;4.38;;;;;;;12.17;54.84;100293.44;4794543;29;122811;-84
2022/02/24 07:12:13;;;;;;;16.05;3.90;;;;;;;12.28;55.33;100317.66;4807838;29;120622;-85
2022/02/24 07:14:41;;;;;;;19.60;4.20;;;;;;;12.17;55.10;100282.47;4797410;29;119755;-85
2022/02/24 07:17:06;;;;;;;14.30;3.70;;;;;;;12.19;55.67;100285.50;4799613;29;120645;-85
2022/02/24 07:19:34;;;;;;;17.63;4.45;;;;;;;12.28;56.20;100281.91;4795050;29;121462;-84
2022/02/24 07:22:00;;;;;;;19.98;4.30;;;;;;;12.43;56.08;100292.94;4797848;29;120203;-85
2022/02/24 07:24:25;;;;;;;17.75;4.43;;;;;;;12.59;55.25;100301.50;4799180;29;120567;-86
2022/02/24 07:26:51;;;;;;;19.15;4.22;;;;;;;12.53;54.94;100286.88;4795935;29;119788;-84
2022/02/24 07:29:17;;;;;;;18.48;3.90;;;;;;;12.50;56.00;100296.06;4810622;29;122121;-84
2022/02/24 07:31:42;;;;;;;23.10;4.82;;;;;;;12.43;56.40;100287.44;4794125;29;122657;-84
2022/02/24 07:34:08;;;;;;;18.60;4.25;;;;;;;12.36;57.51;100293.31;4794026;29;120192;-83
2022/02/24 07:36:34;;;;;;;19.30;4.82;;;;;;;12.36;57.59;100299.56;4778981;29;121829;-83
2022/02/24 07:39:00;;;;;;;23.25;4.50;;;;;;;12.33;58.68;100308.00;4812759;29;120695;-84
2022/02/24 07:41:25;;;;;;;17.27;4.07;;;;;;;12.21;58.57;100285.78;4797163;29;120476;-83
2022/02/24 07:43:51;;;;;;;18.95;5.00;;;;;;;12.14;59.10;100288.91;4808468;29;120034;-83
2022/02/24 07:46:17;;;;;;;23.73;4.63;;;;;;;12.09;60.20;100286.03;4811279;29;119496;-83
2022/02/24 07:48:42;;;;;;;21.83;5.15;;;;;;;12.15;59.51;100289.66;4795159;29;120983;-82
2022/02/24 07:51:08;;;;;;;17.92;4.57;;;;;;;12.04;59.96;100290.19;4795293;29;123572;-84
2022/02/24 07:53:34;;;;;;;23.60;5.22;;;;;;;12.01;59.79;100293.13;4794785;29;120378;-84
2022/02/24 07:55:59;;;;;;;15.48;4.13;;;;;;;11.92;60.90;100271.97;4796545;29;123046;-82
2022/02/24 07:58:27;;;;;;;21.35;4.55;;;;;;;11.94;60.58;100269.50;4825908;28;120457;-82
2022/02/24 08:00:56;;;;;;;19.67;4.88;;;;;;;11.89;60.98;100265.41;4798894;29;120004;-84
2022/02/24 08:03:21;;;;;;;22.77;4.53;;;;;;;11.88;61.32;100265.88;4793777;29;122898;-83
2022/02/24 08:05:47;;;;;;;19.48;4.75;;;;;;;11.90;60.98;100277.16;4805915;29;120727;-82
2022/02/24 08:08:12;;;;;;;20.98;4.78;;;;;;;11.78;60.74;100251.44;4805964;29;120545;-83
2022/02/24 08:10:38;;;;;;;20.58;4.55;;;;;;;11.87;61.13;100269.88;4790457;29;123279;-81
2022/02/24 08:13:04;;;;;;;22.88;5.10;;;;;;;11.77;61.12;100249.88;4808120;29;121179;-83
2022/02/24 08:15:29;;;;;;;24.85;5.30;;;;;;;11.74;61.43;100250.81;4776642;29;120760;-83
2022/02/24 08:17:55;;;;;;;20.15;5.05;;;;;;;11.75;61.36;100252.34;4792804;29;123307;-84
2022/02/24 08:20:21;;;;;;;17.52;4.70;;;;;;;11.77;61.66;100249.13;4829238;28;120160;-84
2022/02/24 08:22:51;;;;;;;20.85;4.65;;;;;;;11.78;61.47;100245.16;4809495;29;120189;-85
2022/02/24 08:25:19;;;;;;;18.70;5.22;;;;;;;11.78;61.57;100242.41;4809978;29;120260;-83
2022/02/24 08:27:46;;;;;;;22.40;4.75;;;;;;;11.74;62.37;100244.56;4793561;29;121850;-83
2022/02/24 08:30:14;;;;;;;20.58;4.78;;;;;;;11.80;62.28;100248.22;4826653;28;120045;-82
2022/02/24 08:32:41;;;;;;;20.77;5.05;;;;;;;11.76;62.28;100233.88;4792582;29;120280;-82
2022/02/24 08:35:08;;;;;;;18.63;4.05;;;;;;;11.75;62.63;100235.09;4797155;29;120474;-81
2022/02/24 08:37:35;;;;;;;19.30;4.75;;;;;;;11.80;62.61;100231.72;4807253;29;124411;-83
2022/02/24 08:40:02;;;;;;;20.05;5.03;;;;;;;11.77;62.52;100213.41;4793480;29;122422;-83
2022/02/24 08:42:27;;;;;;;19.80;4.93;;;;;;;11.86;62.57;100213.38;4813488;29;122134;-85
2022/02/24 08:44:54;;;;;;;21.25;5.50;;;;;;;11.80;62.33;100218.00;4794784;29;119806;-85
2022/02/24 08:47:21;;;;;;;23.75;5.03;;;;;;;11.56;62.57;100201.50;4777405;29;122354;-86
2022/02/24 08:49:47;;;;;;;22.13;4.82;;;;;;;11.51;63.77;100213.13;4795430;29;121592;-82
2022/02/24 08:52:14;;;;;;;23.15;5.43;;;;;;;11.43;64.14;100204.50;4810639;29;120192;-86
2022/02/24 08:54:40;;;;;;;19.65;5.10;;;;;;;11.41;63.97;100206.94;4810028;29;119727;-85
2022/02/24 08:57:06;;;;;;;23.33;5.85;;;;;;;11.31;64.25;100189.00;4792809;29;123188;-83
2022/02/24 08:59:32;;;;;;;27.40;5.97;;;;;;;11.31;64.64;100175.25;4799788;29;121055;-84
2022/02/24 09:01:57;;;;;;;19.60;5.20;;;;;;;11.37;64.35;100176.16;4796021;29;119858;-84
2022/02/24 09:04:23;;;;;;;21.00;5.60;;;;;;;11.34;63.73;100155.09;4784772;29;123088;-82
2022/02/24 09:06:49;;;;;;;22.85;5.53;;;;;;;11.42;63.80;100170.03;4798242;29;122137;-81
2022/02/24 09:09:15;;;;;;;19.70;5.45;;;;;;;11.47;64.14;100176.84;4796433;29;121202;-83
2022/02/24 09:11:40;;;;;;;22.70;5.97;;;;;;;11.53;65.03;100170.22;4798320;29;121025;-81
2022/02/24 09:14:06;;;;;;;21.63;5.63;;;;;;;11.53;64.00;100155.75;4811810;29;120653;-80
2022/02/24 09:16:32;;;;;;;22.48;5.25;;;;;;;11.55;63.58;100161.53;4793494;29;123088;-82
2022/02/24 09:18:58;;;;;;;19.13;5.45;;;;;;;11.54;63.53;100157.25;4795143;29;119886;-81
2022/02/24 09:21:24;;;;;;;19.15;5.10;;;;;;;11.49;63.84;100149.69;4795707;29;123743;-83
2022/02/24 09:23:50;;;;;;;19.33;5.63;;;;;;;11.38;63.96;100139.25;4794965;29;121556;-83
2022/02/24 09:26:15;;;;;;;20.27;5.53;;;;;;;11.42;63.46;100133.56;4801463;29;120012;-83
2022/02/24 09:28:41;;;;;;;18.98;5.53;;;;;;;11.40;64.27;100138.78;4794806;29;122819;-85
2022/02/24 09:31:07;;;;;;;20.35;6.72;;;;;;;11.27;63.67;100125.25;4798815;29;120304;-82
2022/02/24 09:33:32;;;;;;;19.70;6.45;;;;;;;11.34;64.48;100135.88;4796132;29;121626;-85
2022/02/24 09:35:58;;;;;;;23.77;6.55;;;;;;;11.30;64.43;100127.06;4795470;29;123089;-83
2022/02/24 09:38:25;;;;;;;18.05;5.85;;;;;;;11.32;65.42;100122.63;4796623;29;119638;-80
2022/02/24 09:40:53;;;;;;;20.55;6.28;;;;;;;11.46;63.97;100131.41;4795325;29;120734;-81
2022/02/24 09:43:20;;;;;;;20.90;6.45;;;;;;;11.47;63.90;100125.44;4796496;29;119904;-82
2022/02/24 09:45:49;;;;;;;22.98;6.30;;;;;;;11.45;64.19;100125.13;4795072;29;120239;-82
2022/02/24 09:48:23;;;;;;;21.40;6.95;;;;;;;11.49;64.29;100114.72;4781691;29;122318;-85
2022/02/24 09:50:50;;;;;;;18.33;6.28;;;;;;;11.52;63.81;100108.28;4778552;29;120361;-82
2022/02/24 09:53:16;;;;;;;15.95;6.22;;;;;;;11.48;63.31;100107.72;4794283;29;120430;-82
2022/02/24 09:55:42;;;;;;;20.27;7.13;;;;;;;11.34;63.51;100087.22;4778971;29;122670;-84
2022/02/24 09:58:07;;;;;;;18.70;6.38;;;;;;;11.39;64.05;100085.84;4794970;29;121087;-81
2022/02/24 10:00:33;;;;;;;17.40;6.18;;;;;;;11.34;63.46;100081.72;4794978;29;123721;-81
2022/02/24 10:02:59;;;;;;;15.88;6.47;;;;;;;11.27;63.13;100060.13;4793118;29;121198;-83
2022/02/24 10:05:25;;;;;;;21.05;6.93;;;;;;;11.31;63.08;100057.97;4780156;29;120926;-83
2022/02/24 10:07:52;;;;;;;23.77;6.88;;;;;;;11.36;63.41;100064.81;4797377;29;121809;-82
2022/02/24 10:10:21;;;;;;;22.60;7.30;;;;;;;11.49;63.08;100073.53;4791347;29;121009;-81
2022/02/24 10:13:09;;;;;;;16.88;6.28;;;;;;;11.45;63.63;100053.75;4796418;29;121845;-84
2022/02/24 10:15:40;;;;;;;20.20;7.30;;;;;;;11.45;63.55;100059.22;4797515;29;120651;-83
2022/02/24 10:18:10;;;;;;;15.40;6.47;;;;;;;11.50;63.62;100049.56;4780599;29;119764;-83
2022/02/24 10:21:00;;;;;;;23.15;7.18;;;;;;;11.57;63.01;100049.19;4796251;29;119543;-81
2022/02/24 10:23:33;;;;;;;22.05;7.13;;;;;;;11.55;62.31;100038.69;4794802;29;123819;-81
2022/02/24 10:26:06;;;;;;;18.02;6.95;;;;;;;11.55;62.63;100019.47;4796387;29;121120;-86
2022/02/24 10:28:49;;;;;;;19.27;6.47;;;;;;;11.57;62.25;100016.25;4778603;29;123331;-81
2022/02/24 10:31:27;;;;;;;21.13;6.90;;;;;;;11.56;62.33;100003.75;4799002;29;122635;-85
2022/02/24 10:34:06;;;;;;;20.90;6.30;;;;;;;11.60;62.68;99996.09;4800214;29;121743;-83
2022/02/24 10:36:36;;;;;;;19.73;7.10;;;;;;;11.60;62.34;99974.88;4783113;29;123459;-84
2022/02/24 10:39:06;;;;;;;16.27;6.25;;;;;;;11.71;61.98;99988.03;4796566;29;120169;-84
2022/02/24 10:41:35;;;;;;;17.08;6.45;;;;;;;11.75;61.67;99990.56;4797492;29;121670;-83
2022/02/24 10:44:21;;;;;;;21.02;6.70;;;;;;;11.72;61.66;99986.78;4781821;29;124508;-84
2022/02/24 10:46:49;;;;;;;16.15;6.28;;;;;;;11.59;62.02;99965.13;4797795;29;119607;-83
2022/02/24 10:49:35;;;;;;;17.17;6.38;;;;;;;11.76;61.71;99983.84;4797187;29;121701;-81
2022/02/24 10:52:16;;;;;;;22.92;6.90;;;;;;;11.80;61.93;99973.44;4808494;29;121461;-84
2022/02/24 10:54:43;;;;;;;15.90;5.75;;;;;;;11.90;62.31;99967.38;4802712;29;119825;-82
2022/02/24 10:57:20;;;;;;;18.25;6.55;;;;;;;11.92;61.37;99959.41;4813465;29;120516;-84
2022/02/24 10:59:53;;;;;;;21.55;6.30;;;;;;;11.80;61.03;99952.22;4795583;29;119514;-84
2022/02/24 11:02:20;;;;;;;19.55;6.38;;;;;;;11.77;61.04;99931.16;4795891;29;122747;-81
2022/02/24 11:04:46;;;;;;;18.23;8.52;;;;;;;11.85;61.31;99939.81;4794406;29;122423;-81
2022/02/24 11:07:12;;;;;;;20.50;6.18;;;;;;;11.87;61.29;99929.13;4812215;29;121086;-81